Terminal Aerodrome Forecast
Issued by NWS Wilmington, OH

Current Version | Previous Version | Text Only | Print | Product List | Glossary Off
Versions: 1 2 3 4 5 6 7 8 9 10 11 12 13 14 15 16 17 18 19

000
FTUS41 KILN 261003 AAA
TAFDAY
TAF AMD
KDAY 261003Z 2610/2706 32005KT P6SM BKN250
     FM261300 35005KT P6SM SCT035 BKN250
     FM262000 29005KT P6SM SCT035 BKN250
     FM270000 VRB04KT P6SM BKN070=

USA.gov is the U.S. government's official web portal to all federal, state and local government web resources and services.